sensor_id;sensor_type;location;lat;lon;timestamp;P1;durP1;ratioP1;P2;durP2;ratioP2
6858;SDS011;3468;42.824;23.240;2024-01-06T00:01:25;37.37;;;17.30;;
6858;SDS011;3468;42.824;23.240;2024-01-06T00:03:52;29.57;;;16.40;;
6858;SDS011;3468;42.824;23.240;2024-01-06T00:06:18;35.07;;;17.13;;
6858;SDS011;3468;42.824;23.240;2024-01-06T00:08:45;35.80;;;18.10;;
6858;SDS011;3468;42.824;23.240;2024-01-06T00:11:13;32.20;;;15.93;;
6858;SDS011;3468;42.824;23.240;2024-01-06T00:13:39;32.07;;;16.40;;
6858;SDS011;3468;42.824;23.240;2024-01-06T00:16:06;33.47;;;15.93;;
6858;SDS011;3468;42.824;23.240;2024-01-06T00:18:34;32.03;;;16.57;;
6858;SDS011;3468;42.824;23.240;2024-01-06T00:21:01;34.97;;;15.63;;
6858;SDS011;3468;42.824;23.240;2024-01-06T00:23:28;36.20;;;16.73;;
6858;SDS011;3468;42.824;23.240;2024-01-06T00:25:55;28.73;;;15.77;;
6858;SDS011;3468;42.824;23.240;2024-01-06T00:28:22;33.27;;;16.00;;
6858;SDS011;3468;42.824;23.240;2024-01-06T00:30:49;29.23;;;14.50;;
6858;SDS011;3468;42.824;23.240;2024-01-06T00:33:16;30.67;;;15.40;;
6858;SDS011;3468;42.824;23.240;2024-01-06T00:35:44;29.93;;;15.90;;
6858;SDS011;3468;42.824;23.240;2024-01-06T00:38:11;30.63;;;14.23;;
6858;SDS011;3468;42.824;23.240;2024-01-06T00:40:37;33.67;;;16.33;;
6858;SDS011;3468;42.824;23.240;2024-01-06T00:43:04;38.00;;;18.27;;
6858;SDS011;3468;42.824;23.240;2024-01-06T00:45:31;37.23;;;17.60;;
6858;SDS011;3468;42.824;23.240;2024-01-06T00:47:57;31.53;;;16.57;;
6858;SDS011;3468;42.824;23.240;2024-01-06T00:50:23;40.43;;;16.53;;
6858;SDS011;3468;42.824;23.240;2024-01-06T00:52:52;38.20;;;17.23;;
6858;SDS011;3468;42.824;23.240;2024-01-06T00:55:18;33.70;;;16.43;;
6858;SDS011;3468;42.824;23.240;2024-01-06T00:57:45;43.93;;;19.13;;
6858;SDS011;3468;42.824;23.240;2024-01-06T01:00:12;42.97;;;20.60;;
6858;SDS011;3468;42.824;23.240;2024-01-06T01:02:39;52.97;;;23.63;;
6858;SDS011;3468;42.824;23.240;2024-01-06T01:05:06;51.33;;;21.87;;
6858;SDS011;3468;42.824;23.240;2024-01-06T01:07:34;40.37;;;20.43;;
6858;SDS011;3468;42.824;23.240;2024-01-06T01:10:02;48.43;;;25.17;;
6858;SDS011;3468;42.824;23.240;2024-01-06T01:12:29;56.27;;;25.13;;
6858;SDS011;3468;42.824;23.240;2024-01-06T01:14:56;51.23;;;24.17;;
6858;SDS011;3468;42.824;23.240;2024-01-06T01:17:23;55.40;;;25.17;;
6858;SDS011;3468;42.824;23.240;2024-01-06T01:19:50;55.00;;;25.60;;
6858;SDS011;3468;42.824;23.240;2024-01-06T01:22:16;46.67;;;21.47;;
6858;SDS011;3468;42.824;23.240;2024-01-06T01:24:43;45.10;;;22.20;;
6858;SDS011;3468;42.824;23.240;2024-01-06T01:27:11;45.20;;;21.70;;
6858;SDS011;3468;42.824;23.240;2024-01-06T01:29:38;51.93;;;22.27;;
6858;SDS011;3468;42.824;23.240;2024-01-06T01:32:05;41.47;;;19.57;;
6858;SDS011;3468;42.824;23.240;2024-01-06T01:34:32;39.07;;;19.70;;
6858;SDS011;3468;42.824;23.240;2024-01-06T01:36:59;34.57;;;18.93;;
6858;SDS011;3468;42.824;23.240;2024-01-06T01:39:26;42.40;;;20.50;;
6858;SDS011;3468;42.824;23.240;2024-01-06T01:41:53;45.70;;;19.60;;
6858;SDS011;3468;42.824;23.240;2024-01-06T01:44:21;39.90;;;17.53;;
6858;SDS011;3468;42.824;23.240;2024-01-06T01:46:48;37.63;;;18.97;;
6858;SDS011;3468;42.824;23.240;2024-01-06T01:49:15;41.43;;;18.57;;
6858;SDS011;3468;42.824;23.240;2024-01-06T01:51:42;41.13;;;19.00;;
6858;SDS011;3468;42.824;23.240;2024-01-06T01:54:09;37.60;;;18.10;;
6858;SDS011;3468;42.824;23.240;2024-01-06T01:56:36;37.77;;;18.23;;
6858;SDS011;3468;42.824;23.240;2024-01-06T01:59:07;29.90;;;15.93;;
6858;SDS011;3468;42.824;23.240;2024-01-06T02:01:38;32.87;;;17.77;;
6858;SDS011;3468;42.824;23.240;2024-01-06T02:04:06;33.33;;;17.30;;
6858;SDS011;3468;42.824;23.240;2024-01-06T02:06:34;42.20;;;18.43;;
6858;SDS011;3468;42.824;23.240;2024-01-06T02:09:00;48.30;;;19.03;;
6858;SDS011;3468;42.824;23.240;2024-01-06T02:11:27;41.73;;;20.03;;
6858;SDS011;3468;42.824;23.240;2024-01-06T02:13:54;44.53;;;20.37;;
6858;SDS011;3468;42.824;23.240;2024-01-06T02:16:21;41.40;;;19.10;;
6858;SDS011;3468;42.824;23.240;2024-01-06T02:18:49;40.17;;;19.07;;
6858;SDS011;3468;42.824;23.240;2024-01-06T02:21:16;39.83;;;19.67;;
6858;SDS011;3468;42.824;23.240;2024-01-06T02:23:46;39.87;;;20.10;;
6858;SDS011;3468;42.824;23.240;2024-01-06T02:26:13;36.77;;;18.37;;
6858;SDS011;3468;42.824;23.240;2024-01-06T02:28:40;45.37;;;19.30;;
6858;SDS011;3468;42.824;23.240;2024-01-06T02:31:10;44.07;;;20.13;;
6858;SDS011;3468;42.824;23.240;2024-01-06T02:33:36;39.40;;;18.53;;
6858;SDS011;3468;42.824;23.240;2024-01-06T02:36:03;36.50;;;18.03;;
6858;SDS011;3468;42.824;23.240;2024-01-06T02:38:30;42.73;;;20.13;;
6858;SDS011;3468;42.824;23.240;2024-01-06T02:40:59;39.47;;;19.20;;
6858;SDS011;3468;42.824;23.240;2024-01-06T02:43:25;43.17;;;19.07;;
6858;SDS011;3468;42.824;23.240;2024-01-06T02:45:52;46.83;;;20.33;;
6858;SDS011;3468;42.824;23.240;2024-01-06T02:48:19;37.87;;;18.90;;
6858;SDS011;3468;42.824;23.240;2024-01-06T02:50:45;44.43;;;21.23;;
6858;SDS011;3468;42.824;23.240;2024-01-06T02:53:12;44.57;;;21.40;;
6858;SDS011;3468;42.824;23.240;2024-01-06T02:55:39;52.97;;;21.90;;
6858;SDS011;3468;42.824;23.240;2024-01-06T02:58:07;50.27;;;23.40;;
6858;SDS011;3468;42.824;23.240;2024-01-06T03:00:33;44.60;;;21.53;;
6858;SDS011;3468;42.824;23.240;2024-01-06T03:03:00;48.37;;;22.77;;
6858;SDS011;3468;42.824;23.240;2024-01-06T03:05:27;45.87;;;21.70;;
6858;SDS011;3468;42.824;23.240;2024-01-06T03:07:54;46.00;;;21.30;;
6858;SDS011;3468;42.824;23.240;2024-01-06T03:10:21;49.93;;;22.27;;
6858;SDS011;3468;42.824;23.240;2024-01-06T03:12:47;43.27;;;20.77;;
6858;SDS011;3468;42.824;23.240;2024-01-06T03:15:16;47.97;;;21.03;;
6858;SDS011;3468;42.824;23.240;2024-01-06T03:17:42;39.73;;;20.37;;
6858;SDS011;3468;42.824;23.240;2024-01-06T03:20:09;45.00;;;19.83;;
6858;SDS011;3468;42.824;23.240;2024-01-06T03:22:36;43.83;;;19.83;;
6858;SDS011;3468;42.824;23.240;2024-01-06T03:25:03;39.17;;;20.23;;
6858;SDS011;3468;42.824;23.240;2024-01-06T03:27:31;41.40;;;20.07;;
6858;SDS011;3468;42.824;23.240;2024-01-06T03:29:58;46.00;;;21.13;;
6858;SDS011;3468;42.824;23.240;2024-01-06T03:32:26;38.57;;;19.20;;
6858;SDS011;3468;42.824;23.240;2024-01-06T03:34:53;36.83;;;20.10;;
6858;SDS011;3468;42.824;23.240;2024-01-06T03:37:20;49.63;;;22.83;;
6858;SDS011;3468;42.824;23.240;2024-01-06T03:39:47;44.93;;;21.97;;
6858;SDS011;3468;42.824;23.240;2024-01-06T03:42:14;41.83;;;21.40;;
6858;SDS011;3468;42.824;23.240;2024-01-06T03:44:40;43.27;;;20.90;;
6858;SDS011;3468;42.824;23.240;2024-01-06T03:47:07;52.90;;;22.23;;
6858;SDS011;3468;42.824;23.240;2024-01-06T03:49:35;43.27;;;19.57;;
6858;SDS011;3468;42.824;23.240;2024-01-06T03:52:02;38.63;;;20.20;;
6858;SDS011;3468;42.824;23.240;2024-01-06T03:54:29;38.40;;;20.23;;
6858;SDS011;3468;42.824;23.240;2024-01-06T03:56:56;41.47;;;19.87;;
6858;SDS011;3468;42.824;23.240;2024-01-06T03:59:22;42.17;;;21.30;;
6858;SDS011;3468;42.824;23.240;2024-01-06T04:01:49;40.50;;;20.50;;
6858;SDS011;3468;42.824;23.240;2024-01-06T04:04:16;39.37;;;19.40;;
6858;SDS011;3468;42.824;23.240;2024-01-06T04:06:44;36.13;;;18.17;;
6858;SDS011;3468;42.824;23.240;2024-01-06T04:09:11;35.43;;;18.73;;
6858;SDS011;3468;42.824;23.240;2024-01-06T04:11:37;35.33;;;17.43;;
6858;SDS011;3468;42.824;23.240;2024-01-06T04:14:04;39.33;;;19.23;;
6858;SDS011;3468;42.824;23.240;2024-01-06T04:16:31;38.70;;;18.30;;
6858;SDS011;3468;42.824;23.240;2024-01-06T04:18:58;31.47;;;16.80;;
6858;SDS011;3468;42.824;23.240;2024-01-06T04:21:24;38.57;;;18.23;;
6858;SDS011;3468;42.824;23.240;2024-01-06T04:23:52;37.83;;;18.03;;
6858;SDS011;3468;42.824;23.240;2024-01-06T04:26:21;39.70;;;17.70;;
6858;SDS011;3468;42.824;23.240;2024-01-06T04:28:47;34.93;;;15.90;;
6858;SDS011;3468;42.824;23.240;2024-01-06T04:31:14;31.10;;;14.97;;
6858;SDS011;3468;42.824;23.240;2024-01-06T04:33:41;31.97;;;15.97;;
6858;SDS011;3468;42.824;23.240;2024-01-06T04:36:08;32.20;;;13.67;;
6858;SDS011;3468;42.824;23.240;2024-01-06T04:38:34;24.93;;;13.23;;
6858;SDS011;3468;42.824;23.240;2024-01-06T04:41:02;28.93;;;13.70;;
6858;SDS011;3468;42.824;23.240;2024-01-06T04:43:29;27.00;;;12.83;;
6858;SDS011;3468;42.824;23.240;2024-01-06T04:45:56;25.63;;;13.53;;
6858;SDS011;3468;42.824;23.240;2024-01-06T04:48:23;25.37;;;12.73;;
6858;SDS011;3468;42.824;23.240;2024-01-06T04:50:50;31.33;;;13.60;;
6858;SDS011;3468;42.824;23.240;2024-01-06T04:53:17;30.77;;;14.30;;
6858;SDS011;3468;42.824;23.240;2024-01-06T04:55:43;24.50;;;13.17;;
6858;SDS011;3468;42.824;23.240;2024-01-06T04:58:11;32.37;;;13.90;;
6858;SDS011;3468;42.824;23.240;2024-01-06T05:00:38;26.83;;;14.13;;
6858;SDS011;3468;42.824;23.240;2024-01-06T05:03:05;31.40;;;14.30;;
6858;SDS011;3468;42.824;23.240;2024-01-06T05:05:32;28.27;;;14.47;;
6858;SDS011;3468;42.824;23.240;2024-01-06T05:07:58;27.57;;;13.70;;
6858;SDS011;3468;42.824;23.240;2024-01-06T05:10:25;30.13;;;14.17;;
6858;SDS011;3468;42.824;23.240;2024-01-06T05:12:52;26.53;;;14.00;;
6858;SDS011;3468;42.824;23.240;2024-01-06T05:15:20;29.23;;;14.30;;
6858;SDS011;3468;42.824;23.240;2024-01-06T05:17:46;30.03;;;15.63;;
6858;SDS011;3468;42.824;23.240;2024-01-06T05:20:13;27.90;;;14.33;;
6858;SDS011;3468;42.824;23.240;2024-01-06T05:22:40;31.50;;;14.87;;
6858;SDS011;3468;42.824;23.240;2024-01-06T05:25:07;41.13;;;18.40;;
6858;SDS011;3468;42.824;23.240;2024-01-06T05:27:35;50.43;;;22.53;;
6858;SDS011;3468;42.824;23.240;2024-01-06T05:30:02;40.53;;;18.47;;
6858;SDS011;3468;42.824;23.240;2024-01-06T05:32:30;41.50;;;18.03;;
6858;SDS011;3468;42.824;23.240;2024-01-06T05:34:57;67.10;;;25.97;;
6858;SDS011;3468;42.824;23.240;2024-01-06T05:37:23;54.17;;;23.63;;
6858;SDS011;3468;42.824;23.240;2024-01-06T05:39:50;58.40;;;25.47;;
6858;SDS011;3468;42.824;23.240;2024-01-06T05:42:17;38.63;;;19.53;;
6858;SDS011;3468;42.824;23.240;2024-01-06T05:44:44;45.03;;;18.47;;
6858;SDS011;3468;42.824;23.240;2024-01-06T05:47:10;38.33;;;16.73;;
6858;SDS011;3468;42.824;23.240;2024-01-06T05:49:42;39.97;;;20.47;;
6858;SDS011;3468;42.824;23.240;2024-01-06T05:52:09;39.23;;;17.73;;
6858;SDS011;3468;42.824;23.240;2024-01-06T05:54:36;38.00;;;16.43;;
6858;SDS011;3468;42.824;23.240;2024-01-06T05:57:06;24.77;;;12.67;;
6858;SDS011;3468;42.824;23.240;2024-01-06T05:59:33;22.07;;;12.50;;
6858;SDS011;3468;42.824;23.240;2024-01-06T06:02:00;24.27;;;12.87;;
6858;SDS011;3468;42.824;23.240;2024-01-06T06:04:26;33.50;;;14.63;;
6858;SDS011;3468;42.824;23.240;2024-01-06T06:06:54;28.40;;;14.67;;
6858;SDS011;3468;42.824;23.240;2024-01-06T06:09:21;30.33;;;13.77;;
6858;SDS011;3468;42.824;23.240;2024-01-06T06:11:48;28.97;;;15.20;;
6858;SDS011;3468;42.824;23.240;2024-01-06T06:14:15;26.77;;;14.67;;
6858;SDS011;3468;42.824;23.240;2024-01-06T06:16:41;38.60;;;22.47;;
6858;SDS011;3468;42.824;23.240;2024-01-06T06:19:08;47.43;;;23.13;;
6858;SDS011;3468;42.824;23.240;2024-01-06T06:21:35;35.77;;;16.87;;
6858;SDS011;3468;42.824;23.240;2024-01-06T06:24:04;27.10;;;15.13;;
6858;SDS011;3468;42.824;23.240;2024-01-06T06:26:31;33.43;;;16.97;;
6858;SDS011;3468;42.824;23.240;2024-01-06T06:28:57;30.40;;;15.10;;
6858;SDS011;3468;42.824;23.240;2024-01-06T06:31:24;28.57;;;14.70;;
6858;SDS011;3468;42.824;23.240;2024-01-06T06:33:51;28.53;;;15.07;;
6858;SDS011;3468;42.824;23.240;2024-01-06T06:36:18;27.93;;;15.30;;
6858;SDS011;3468;42.824;23.240;2024-01-06T06:38:45;29.37;;;15.93;;
6858;SDS011;3468;42.824;23.240;2024-01-06T06:41:13;33.53;;;17.63;;
6858;SDS011;3468;42.824;23.240;2024-01-06T06:43:41;35.57;;;18.37;;
6858;SDS011;3468;42.824;23.240;2024-01-06T06:46:08;45.40;;;20.60;;
6858;SDS011;3468;42.824;23.240;2024-01-06T06:48:34;44.93;;;21.17;;
6858;SDS011;3468;42.824;23.240;2024-01-06T06:51:02;43.90;;;22.30;;
6858;SDS011;3468;42.824;23.240;2024-01-06T06:53:29;50.17;;;22.53;;
6858;SDS011;3468;42.824;23.240;2024-01-06T06:55:55;77.43;;;33.33;;
6858;SDS011;3468;42.824;23.240;2024-01-06T06:58:23;95.23;;;35.40;;
6858;SDS011;3468;42.824;23.240;2024-01-06T07:00:50;70.30;;;30.37;;
6858;SDS011;3468;42.824;23.240;2024-01-06T07:03:19;77.73;;;32.87;;
6858;SDS011;3468;42.824;23.240;2024-01-06T07:05:46;72.77;;;31.23;;
6858;SDS011;3468;42.824;23.240;2024-01-06T07:08:12;73.57;;;31.03;;
6858;SDS011;3468;42.824;23.240;2024-01-06T07:10:40;73.77;;;30.60;;
6858;SDS011;3468;42.824;23.240;2024-01-06T07:13:07;84.17;;;34.00;;
6858;SDS011;3468;42.824;23.240;2024-01-06T07:15:35;59.13;;;26.43;;
6858;SDS011;3468;42.824;23.240;2024-01-06T07:18:02;50.03;;;23.63;;
6858;SDS011;3468;42.824;23.240;2024-01-06T07:20:28;35.47;;;18.17;;
6858;SDS011;3468;42.824;23.240;2024-01-06T07:22:55;34.47;;;16.90;;
6858;SDS011;3468;42.824;23.240;2024-01-06T07:25:22;34.00;;;17.37;;
6858;SDS011;3468;42.824;23.240;2024-01-06T07:27:49;40.70;;;17.57;;
6858;SDS011;3468;42.824;23.240;2024-01-06T07:30:15;40.33;;;17.23;;
6858;SDS011;3468;42.824;23.240;2024-01-06T07:32:44;34.53;;;17.00;;
6858;SDS011;3468;42.824;23.240;2024-01-06T07:35:10;43.93;;;18.27;;
6858;SDS011;3468;42.824;23.240;2024-01-06T07:37:37;34.20;;;17.40;;
6858;SDS011;3468;42.824;23.240;2024-01-06T07:40:04;36.07;;;17.20;;
6858;SDS011;3468;42.824;23.240;2024-01-06T07:42:31;36.57;;;17.57;;
6858;SDS011;3468;42.824;23.240;2024-01-06T07:44:58;29.80;;;16.27;;
6858;SDS011;3468;42.824;23.240;2024-01-06T07:47:25;39.17;;;18.20;;
6858;SDS011;3468;42.824;23.240;2024-01-06T07:49:53;37.93;;;16.57;;
6858;SDS011;3468;42.824;23.240;2024-01-06T07:52:22;32.57;;;15.47;;
6858;SDS011;3468;42.824;23.240;2024-01-06T07:54:49;31.23;;;15.50;;
6858;SDS011;3468;42.824;23.240;2024-01-06T07:57:16;30.77;;;16.33;;
6858;SDS011;3468;42.824;23.240;2024-01-06T07:59:43;27.97;;;13.97;;
6858;SDS011;3468;42.824;23.240;2024-01-06T08:02:09;28.87;;;13.93;;
6858;SDS011;3468;42.824;23.240;2024-01-06T08:04:36;25.73;;;13.47;;
6858;SDS011;3468;42.824;23.240;2024-01-06T08:07:04;48.97;;;24.17;;
6858;SDS011;3468;42.824;23.240;2024-01-06T08:09:31;42.63;;;22.47;;
6858;SDS011;3468;42.824;23.240;2024-01-06T08:11:58;44.97;;;19.37;;
6858;SDS011;3468;42.824;23.240;2024-01-06T08:14:25;34.83;;;18.33;;
6858;SDS011;3468;42.824;23.240;2024-01-06T08:16:52;33.50;;;15.67;;
6858;SDS011;3468;42.824;23.240;2024-01-06T08:19:19;27.97;;;15.90;;
6858;SDS011;3468;42.824;23.240;2024-01-06T08:21:45;27.00;;;15.73;;
6858;SDS011;3468;42.824;23.240;2024-01-06T08:24:14;28.43;;;16.20;;
6858;SDS011;3468;42.824;23.240;2024-01-06T08:26:41;31.80;;;17.73;;
6858;SDS011;3468;42.824;23.240;2024-01-06T08:29:08;28.07;;;15.50;;
6858;SDS011;3468;42.824;23.240;2024-01-06T08:31:34;38.83;;;18.13;;
6858;SDS011;3468;42.824;23.240;2024-01-06T08:34:01;34.60;;;18.70;;
6858;SDS011;3468;42.824;23.240;2024-01-06T08:36:31;32.93;;;18.67;;
6858;SDS011;3468;42.824;23.240;2024-01-06T08:38:57;31.70;;;16.33;;
6858;SDS011;3468;42.824;23.240;2024-01-06T08:41:26;23.23;;;13.77;;
6858;SDS011;3468;42.824;23.240;2024-01-06T08:43:52;24.13;;;12.50;;
6858;SDS011;3468;42.824;23.240;2024-01-06T08:46:19;28.77;;;14.93;;
6858;SDS011;3468;42.824;23.240;2024-01-06T08:48:46;16.77;;;9.90;;
6858;SDS011;3468;42.824;23.240;2024-01-06T08:51:13;11.57;;;6.33;;
6858;SDS011;3468;42.824;23.240;2024-01-06T08:53:40;12.40;;;6.73;;
6858;SDS011;3468;42.824;23.240;2024-01-06T08:56:07;11.27;;;7.20;;
6858;SDS011;3468;42.824;23.240;2024-01-06T08:58:36;18.33;;;7.60;;
6858;SDS011;3468;42.824;23.240;2024-01-06T09:01:02;11.90;;;7.33;;
6858;SDS011;3468;42.824;23.240;2024-01-06T09:03:29;12.03;;;6.97;;
6858;SDS011;3468;42.824;23.240;2024-01-06T09:05:56;14.67;;;7.20;;
6858;SDS011;3468;42.824;23.240;2024-01-06T09:08:23;13.50;;;7.20;;
6858;SDS011;3468;42.824;23.240;2024-01-06T09:10:50;10.17;;;6.30;;
6858;SDS011;3468;42.824;23.240;2024-01-06T09:13:20;13.33;;;6.40;;
6858;SDS011;3468;42.824;23.240;2024-01-06T09:15:49;11.07;;;6.60;;
6858;SDS011;3468;42.824;23.240;2024-01-06T09:18:16;9.03;;;6.07;;
6858;SDS011;3468;42.824;23.240;2024-01-06T09:20:43;12.87;;;5.57;;
6858;SDS011;3468;42.824;23.240;2024-01-06T09:23:12;9.43;;;5.90;;
6858;SDS011;3468;42.824;23.240;2024-01-06T09:25:39;15.63;;;6.33;;
6858;SDS011;3468;42.824;23.240;2024-01-06T09:28:06;12.17;;;6.10;;
6858;SDS011;3468;42.824;23.240;2024-01-06T09:30:33;11.30;;;6.37;;
6858;SDS011;3468;42.824;23.240;2024-01-06T09:33:01;15.83;;;7.37;;
6858;SDS011;3468;42.824;23.240;2024-01-06T09:35:28;16.70;;;8.00;;
6858;SDS011;3468;42.824;23.240;2024-01-06T09:37:55;18.10;;;8.27;;
6858;SDS011;3468;42.824;23.240;2024-01-06T09:40:22;20.03;;;10.43;;
6858;SDS011;3468;42.824;23.240;2024-01-06T09:42:50;17.37;;;9.50;;
6858;SDS011;3468;42.824;23.240;2024-01-06T09:45:17;16.10;;;9.63;;
6858;SDS011;3468;42.824;23.240;2024-01-06T09:47:46;20.20;;;10.23;;
6858;SDS011;3468;42.824;23.240;2024-01-06T09:50:18;16.63;;;8.60;;
6858;SDS011;3468;42.824;23.240;2024-01-06T09:52:47;13.63;;;8.00;;
6858;SDS011;3468;42.824;23.240;2024-01-06T09:55:20;15.03;;;8.13;;
6858;SDS011;3468;42.824;23.240;2024-01-06T09:57:50;16.03;;;8.50;;
6858;SDS011;3468;42.824;23.240;2024-01-06T10:00:17;18.67;;;9.87;;
6858;SDS011;3468;42.824;23.240;2024-01-06T10:02:45;19.90;;;10.73;;
6858;SDS011;3468;42.824;23.240;2024-01-06T10:05:14;19.33;;;11.20;;
6858;SDS011;3468;42.824;23.240;2024-01-06T10:07:43;20.97;;;11.53;;
6858;SDS011;3468;42.824;23.240;2024-01-06T10:10:10;23.60;;;11.03;;
6858;SDS011;3468;42.824;23.240;2024-01-06T10:12:37;26.87;;;12.47;;
6858;SDS011;3468;42.824;23.240;2024-01-06T10:15:04;27.43;;;13.70;;
6858;SDS011;3468;42.824;23.240;2024-01-06T10:17:32;23.00;;;12.87;;
6858;SDS011;3468;42.824;23.240;2024-01-06T10:19:59;22.13;;;10.97;;
6858;SDS011;3468;42.824;23.240;2024-01-06T10:22:26;25.83;;;12.67;;
6858;SDS011;3468;42.824;23.240;2024-01-06T10:24:55;24.30;;;11.30;;
6858;SDS011;3468;42.824;23.240;2024-01-06T10:27:22;13.80;;;7.40;;
6858;SDS011;3468;42.824;23.240;2024-01-06T10:29:49;11.83;;;5.70;;
6858;SDS011;3468;42.824;23.240;2024-01-06T10:32:16;10.37;;;4.53;;
6858;SDS011;3468;42.824;23.240;2024-01-06T10:34:43;8.63;;;5.17;;
6858;SDS011;3468;42.824;23.240;2024-01-06T10:37:10;12.27;;;5.40;;
6858;SDS011;3468;42.824;23.240;2024-01-06T10:39:37;8.83;;;4.70;;
6858;SDS011;3468;42.824;23.240;2024-01-06T10:42:05;8.27;;;4.53;;
6858;SDS011;3468;42.824;23.240;2024-01-06T10:44:32;14.63;;;6.73;;
6858;SDS011;3468;42.824;23.240;2024-01-06T10:47:00;11.47;;;6.70;;
6858;SDS011;3468;42.824;23.240;2024-01-06T10:49:29;13.50;;;7.57;;
6858;SDS011;3468;42.824;23.240;2024-01-06T10:51:57;13.57;;;7.67;;
6858;SDS011;3468;42.824;23.240;2024-01-06T10:54:25;12.30;;;6.60;;
6858;SDS011;3468;42.824;23.240;2024-01-06T10:56:53;11.20;;;5.87;;
6858;SDS011;3468;42.824;23.240;2024-01-06T10:59:22;14.33;;;6.30;;
6858;SDS011;3468;42.824;23.240;2024-01-06T11:01:52;9.80;;;6.03;;
6858;SDS011;3468;42.824;23.240;2024-01-06T11:04:21;16.07;;;8.77;;
6858;SDS011;3468;42.824;23.240;2024-01-06T11:06:48;16.50;;;8.17;;
6858;SDS011;3468;42.824;23.240;2024-01-06T11:09:18;12.23;;;7.57;;
6858;SDS011;3468;42.824;23.240;2024-01-06T11:11:48;15.13;;;7.90;;
6858;SDS011;3468;42.824;23.240;2024-01-06T11:14:19;14.20;;;7.30;;
6858;SDS011;3468;42.824;23.240;2024-01-06T11:16:49;14.03;;;6.93;;
6858;SDS011;3468;42.824;23.240;2024-01-06T11:22:19;14.83;;;7.23;;
6858;SDS011;3468;42.824;23.240;2024-01-06T11:24:46;12.00;;;6.67;;
6858;SDS011;3468;42.824;23.240;2024-01-06T11:27:17;11.23;;;6.27;;
6858;SDS011;3468;42.824;23.240;2024-01-06T11:29:46;12.53;;;5.77;;
6858;SDS011;3468;42.824;23.240;2024-01-06T11:32:18;11.53;;;5.30;;
6858;SDS011;3468;42.824;23.240;2024-01-06T11:34:49;10.47;;;4.97;;
6858;SDS011;3468;42.824;23.240;2024-01-06T11:37:19;6.40;;;3.77;;
6858;SDS011;3468;42.824;23.240;2024-01-06T11:39:46;8.63;;;3.63;;
6858;SDS011;3468;42.824;23.240;2024-01-06T11:42:13;6.93;;;3.83;;
6858;SDS011;3468;42.824;23.240;2024-01-06T11:44:41;6.77;;;3.43;;
6858;SDS011;3468;42.824;23.240;2024-01-06T11:47:12;8.17;;;3.03;;
6858;SDS011;3468;42.824;23.240;2024-01-06T11:49:40;5.37;;;2.77;;
6858;SDS011;3468;42.824;23.240;2024-01-06T11:52:11;7.43;;;2.97;;
6858;SDS011;3468;42.824;23.240;2024-01-06T11:54:38;5.43;;;2.80;;
6858;SDS011;3468;42.824;23.240;2024-01-06T11:57:06;5.10;;;2.50;;
6858;SDS011;3468;42.824;23.240;2024-01-06T11:59:34;6.20;;;2.70;;
6858;SDS011;3468;42.824;23.240;2024-01-06T12:02:01;3.97;;;2.50;;
6858;SDS011;3468;42.824;23.240;2024-01-06T12:04:29;4.17;;;2.57;;
6858;SDS011;3468;42.824;23.240;2024-01-06T12:07:04;7.53;;;2.60;;
6858;SDS011;3468;42.824;23.240;2024-01-06T12:09:32;3.63;;;2.43;;
6858;SDS011;3468;42.824;23.240;2024-01-06T12:12:02;5.53;;;2.50;;
6858;SDS011;3468;42.824;23.240;2024-01-06T12:14:30;3.83;;;2.43;;
6858;SDS011;3468;42.824;23.240;2024-01-06T12:16:57;5.43;;;2.80;;
6858;SDS011;3468;42.824;23.240;2024-01-06T12:19:27;4.10;;;2.27;;
6858;SDS011;3468;42.824;23.240;2024-01-06T12:21:57;4.87;;;2.60;;
6858;SDS011;3468;42.824;23.240;2024-01-06T12:24:24;6.07;;;2.17;;
6858;SDS011;3468;42.824;23.240;2024-01-06T12:26:54;4.83;;;2.37;;
6858;SDS011;3468;42.824;23.240;2024-01-06T12:29:21;4.20;;;2.53;;
6858;SDS011;3468;42.824;23.240;2024-01-06T12:31:48;6.73;;;3.13;;
6858;SDS011;3468;42.824;23.240;2024-01-06T12:34:15;11.60;;;3.63;;
6858;SDS011;3468;42.824;23.240;2024-01-06T12:36:43;6.73;;;3.03;;
6858;SDS011;3468;42.824;23.240;2024-01-06T12:39:12;7.90;;;3.10;;
6858;SDS011;3468;42.824;23.240;2024-01-06T12:41:40;7.57;;;3.17;;
6858;SDS011;3468;42.824;23.240;2024-01-06T12:44:07;9.27;;;4.37;;
6858;SDS011;3468;42.824;23.240;2024-01-06T12:46:34;7.13;;;4.03;;
6858;SDS011;3468;42.824;23.240;2024-01-06T12:49:01;8.43;;;4.00;;
6858;SDS011;3468;42.824;23.240;2024-01-06T12:51:28;7.83;;;4.43;;
6858;SDS011;3468;42.824;23.240;2024-01-06T12:53:56;8.20;;;4.60;;
6858;SDS011;3468;42.824;23.240;2024-01-06T12:56:23;11.17;;;4.60;;
6858;SDS011;3468;42.824;23.240;2024-01-06T12:58:50;9.33;;;4.70;;
6858;SDS011;3468;42.824;23.240;2024-01-06T13:01:17;8.37;;;4.63;;
6858;SDS011;3468;42.824;23.240;2024-01-06T13:03:44;7.60;;;4.87;;
6858;SDS011;3468;42.824;23.240;2024-01-06T13:06:11;7.77;;;4.33;;
6858;SDS011;3468;42.824;23.240;2024-01-06T13:08:38;8.33;;;4.33;;
6858;SDS011;3468;42.824;23.240;2024-01-06T13:11:06;11.67;;;4.03;;
6858;SDS011;3468;42.824;23.240;2024-01-06T13:13:33;6.97;;;3.67;;
6858;SDS011;3468;42.824;23.240;2024-01-06T13:16:00;9.00;;;3.97;;
6858;SDS011;3468;42.824;23.240;2024-01-06T13:18:30;6.93;;;3.80;;
6858;SDS011;3468;42.824;23.240;2024-01-06T13:20:57;10.17;;;4.50;;
6858;SDS011;3468;42.824;23.240;2024-01-06T13:23:24;9.80;;;3.80;;
6858;SDS011;3468;42.824;23.240;2024-01-06T13:25:50;9.07;;;4.07;;
6858;SDS011;3468;42.824;23.240;2024-01-06T13:28:19;7.07;;;3.97;;
6858;SDS011;3468;42.824;23.240;2024-01-06T13:30:45;8.53;;;3.40;;
6858;SDS011;3468;42.824;23.240;2024-01-06T13:33:12;6.03;;;3.77;;
6858;SDS011;3468;42.824;23.240;2024-01-06T13:35:39;5.47;;;3.27;;
6858;SDS011;3468;42.824;23.240;2024-01-06T13:38:05;7.33;;;3.20;;
6858;SDS011;3468;42.824;23.240;2024-01-06T13:40:34;3.90;;;3.00;;
6858;SDS011;3468;42.824;23.240;2024-01-06T13:43:01;7.57;;;2.50;;
6858;SDS011;3468;42.824;23.240;2024-01-06T13:45:31;6.33;;;3.00;;
6858;SDS011;3468;42.824;23.240;2024-01-06T13:47:58;7.63;;;2.83;;
6858;SDS011;3468;42.824;23.240;2024-01-06T13:50:25;6.10;;;2.70;;
6858;SDS011;3468;42.824;23.240;2024-01-06T13:52:52;7.13;;;3.40;;
6858;SDS011;3468;42.824;23.240;2024-01-06T13:55:19;8.10;;;2.90;;
6858;SDS011;3468;42.824;23.240;2024-01-06T13:57:46;5.23;;;3.03;;
6858;SDS011;3468;42.824;23.240;2024-01-06T14:00:13;6.57;;;3.37;;
6858;SDS011;3468;42.824;23.240;2024-01-06T14:02:45;6.23;;;2.90;;
6858;SDS011;3468;42.824;23.240;2024-01-06T14:05:12;5.20;;;3.00;;
6858;SDS011;3468;42.824;23.240;2024-01-06T14:07:39;7.37;;;3.20;;
6858;SDS011;3468;42.824;23.240;2024-01-06T14:10:10;6.23;;;3.47;;
6858;SDS011;3468;42.824;23.240;2024-01-06T14:12:37;8.50;;;3.77;;
6858;SDS011;3468;42.824;23.240;2024-01-06T14:15:04;10.47;;;4.30;;
6858;SDS011;3468;42.824;23.240;2024-01-06T14:17:31;9.80;;;3.87;;
6858;SDS011;3468;42.824;23.240;2024-01-06T14:20:00;5.77;;;3.53;;
6858;SDS011;3468;42.824;23.240;2024-01-06T14:22:26;5.77;;;3.70;;
6858;SDS011;3468;42.824;23.240;2024-01-06T14:24:53;6.10;;;3.60;;
6858;SDS011;3468;42.824;23.240;2024-01-06T14:27:20;9.30;;;4.80;;
6858;SDS011;3468;42.824;23.240;2024-01-06T14:29:47;11.90;;;4.70;;
6858;SDS011;3468;42.824;23.240;2024-01-06T14:32:14;6.40;;;4.30;;
6858;SDS011;3468;42.824;23.240;2024-01-06T14:34:41;8.60;;;4.37;;
6858;SDS011;3468;42.824;23.240;2024-01-06T14:37:09;9.03;;;4.30;;
6858;SDS011;3468;42.824;23.240;2024-01-06T14:39:36;7.20;;;4.60;;
6858;SDS011;3468;42.824;23.240;2024-01-06T14:42:03;10.70;;;5.20;;
6858;SDS011;3468;42.824;23.240;2024-01-06T14:44:30;29.43;;;11.77;;
6858;SDS011;3468;42.824;23.240;2024-01-06T14:46:57;13.90;;;6.23;;